createdAt,value
2023-01-10T00:00:11.337Z,27.13
2023-01-10T00:02:41.000Z,21.57
2023-01-10T00:05:10.830Z,25.05
2023-01-10T00:07:40.311Z,21.40
2023-01-10T00:10:10.733Z,28.65
2023-01-10T00:12:58.608Z,23.20
2023-01-10T00:15:28.112Z,24.33
2023-01-10T00:17:57.766Z,24.60
2023-01-10T00:20:27.775Z,24.65
2023-01-10T00:22:57.813Z,20.68
2023-01-10T00:25:27.476Z,25.52
2023-01-10T00:28:05.077Z,22.58
2023-01-10T00:30:35.533Z,25.30
2023-01-10T00:33:05.108Z,20.95
2023-01-10T00:35:35.528Z,23.55
2023-01-10T00:38:07.697Z,23.13
2023-01-10T00:40:37.206Z,27.07
2023-01-10T00:43:24.492Z,25.30
2023-01-10T00:45:54.090Z,23.73
2023-01-10T00:48:23.487Z,24.07
2023-01-10T00:50:53.171Z,24.47
2023-01-10T00:53:24.584Z,23.63
2023-01-10T00:55:55.925Z,24.00
2023-01-10T00:58:25.827Z,24.27
2023-01-10T01:00:56.135Z,22.75
2023-01-10T01:03:25.788Z,23.77
2023-01-10T01:05:55.346Z,18.50
2023-01-10T01:08:24.837Z,25.62
2023-01-10T01:10:54.341Z,26.27
2023-01-10T01:13:23.833Z,21.90
2023-01-10T01:15:53.783Z,20.80
2023-01-10T01:18:23.502Z,28.47
2023-01-10T01:20:57.686Z,21.40
2023-01-10T01:23:28.073Z,23.73
2023-01-10T01:25:59.149Z,26.20
2023-01-10T01:28:29.049Z,22.30
2023-01-10T01:30:58.485Z,28.77
2023-01-10T01:33:28.624Z,23.77
2023-01-10T01:35:58.031Z,23.55
2023-01-10T01:38:27.453Z,30.17
2023-01-10T01:40:56.954Z,17.20
2023-01-10T01:43:28.916Z,22.45
2023-01-10T01:46:01.592Z,21.37
2023-01-10T01:51:12.837Z,24.40
2023-01-10T01:53:52.156Z,26.90
2023-01-10T01:56:24.671Z,26.23
2023-01-10T01:59:00.417Z,24.18
2023-01-10T02:01:31.959Z,23.60
2023-01-10T02:04:04.733Z,25.60
2023-01-10T02:06:34.215Z,23.83
2023-01-10T02:09:15.772Z,23.32
2023-01-10T02:11:45.264Z,24.35
2023-01-10T02:14:16.241Z,28.53
2023-01-10T02:16:45.758Z,23.43
2023-01-10T02:19:27.320Z,24.40
2023-01-10T02:22:20.981Z,26.25
2023-01-10T02:25:05.464Z,34.30
2023-01-10T02:27:54.678Z,28.83
2023-01-10T02:30:54.399Z,22.70
2023-01-10T02:33:35.988Z,24.30
2023-01-10T02:36:42.195Z,29.30
2023-01-10T02:39:14.726Z,28.12
2023-01-10T02:42:06.907Z,23.92
2023-01-10T02:44:45.576Z,23.60
2023-01-10T02:47:15.310Z,24.32
2023-01-10T02:49:49.625Z,23.67
2023-01-10T02:52:28.176Z,23.43
2023-01-10T02:55:01.576Z,25.90
2023-01-10T02:57:54.845Z,24.20
2023-01-10T03:00:33.056Z,24.07
2023-01-10T03:03:11.881Z,23.20
2023-01-10T03:05:56.823Z,22.07
2023-01-10T03:08:32.188Z,20.77
2023-01-10T03:11:04.699Z,19.97
2023-01-10T03:13:52.062Z,21.35
2023-01-10T03:16:25.156Z,22.50
2023-01-10T03:19:12.570Z,24.67
2023-01-10T03:21:44.417Z,28.13
2023-01-10T03:25:51.895Z,25.62
2023-01-10T03:28:24.395Z,18.83
2023-01-10T03:30:57.059Z,25.65
2023-01-10T03:33:32.995Z,19.62
2023-01-10T03:36:09.292Z,20.32
2023-01-10T03:38:57.245Z,25.32
2023-01-10T03:41:35.424Z,20.23
2023-01-10T03:44:25.597Z,24.60
2023-01-10T03:47:12.928Z,20.75
2023-01-10T03:49:45.358Z,22.22
2023-01-10T03:52:17.943Z,20.43
2023-01-10T03:54:48.518Z,25.80
2023-01-10T03:57:23.558Z,19.80
2023-01-10T03:59:58.439Z,23.67
2023-01-10T04:02:31.011Z,24.07
2023-01-10T04:05:01.092Z,22.52
2023-01-10T04:07:30.671Z,20.37
2023-01-10T04:10:00.465Z,15.48
2023-01-10T04:12:29.861Z,19.05
2023-01-10T04:14:59.295Z,25.60
2023-01-10T04:17:29.168Z,23.02
2023-01-10T04:19:58.735Z,20.02
2023-01-10T04:22:28.253Z,18.67
2023-01-10T04:24:57.851Z,17.52
2023-01-10T04:27:27.279Z,19.15
2023-01-10T04:29:56.773Z,15.03
2023-01-10T04:32:26.274Z,16.37
2023-01-10T04:34:55.701Z,11.12
2023-01-10T04:37:25.124Z,16.30
2023-01-10T04:39:56.349Z,18.85
2023-01-10T04:42:25.912Z,15.77
2023-01-10T04:44:55.342Z,18.25
2023-01-10T04:47:25.008Z,23.52
2023-01-10T04:49:54.430Z,23.65
2023-01-10T04:52:25.492Z,21.00
2023-01-10T04:54:55.224Z,19.48
2023-01-10T04:57:24.958Z,20.47
2023-01-10T04:59:54.367Z,21.40
2023-01-10T05:02:24.046Z,24.80
2023-01-10T05:04:53.503Z,23.73
2023-01-10T05:07:22.939Z,17.82
2023-01-10T05:09:52.876Z,23.12
2023-01-10T05:12:22.284Z,27.57
2023-01-10T05:14:51.722Z,25.15
2023-01-10T05:17:21.216Z,23.80
2023-01-10T05:19:50.641Z,21.90
2023-01-10T05:22:20.065Z,20.90
2023-01-10T05:24:50.333Z,23.35
2023-01-10T05:27:19.816Z,16.43
2023-01-10T05:29:49.245Z,21.87
2023-01-10T05:32:18.872Z,27.77
2023-01-10T05:34:48.287Z,22.42
2023-01-10T05:37:17.828Z,23.38
2023-01-10T05:39:47.281Z,25.40
2023-01-10T05:42:16.716Z,16.83
2023-01-10T05:44:46.133Z,17.05
2023-01-10T05:47:16.060Z,18.45
2023-01-10T05:49:45.479Z,24.32
2023-01-10T05:52:16.499Z,14.73
2023-01-10T05:54:45.924Z,13.48
2023-01-10T05:57:15.373Z,18.40
2023-01-10T05:59:46.201Z,11.97
2023-01-10T06:02:15.718Z,20.27
2023-01-10T06:04:45.591Z,15.85
2023-01-10T06:07:16.000Z,16.32
2023-01-10T06:09:46.571Z,21.45
2023-01-10T06:12:16.043Z,17.70
2023-01-10T06:14:46.131Z,14.98
2023-01-10T06:17:15.554Z,21.55
2023-01-10T06:19:45.358Z,16.12
2023-01-10T06:22:14.922Z,18.70
2023-01-10T06:24:44.374Z,21.00
2023-01-10T06:27:13.883Z,16.67
2023-01-10T06:29:43.352Z,17.50
2023-01-10T06:32:12.858Z,15.83
2023-01-10T06:34:42.985Z,17.50
2023-01-10T06:37:12.434Z,21.20
2023-01-10T06:39:41.850Z,17.52
2023-01-10T06:42:11.417Z,15.13
2023-01-10T06:44:40.830Z,25.20
2023-01-10T06:47:10.573Z,17.98
2023-01-10T06:49:40.287Z,18.42
2023-01-10T06:52:09.822Z,19.62
2023-01-10T06:54:39.711Z,20.12
2023-01-10T06:57:10.300Z,14.07
2023-01-10T06:59:39.783Z,14.65
2023-01-10T07:02:12.809Z,23.75
2023-01-10T07:04:42.776Z,17.12
2023-01-10T07:07:12.206Z,19.75
2023-01-10T07:09:41.628Z,16.48
2023-01-10T07:12:11.264Z,22.32
2023-01-10T07:14:40.684Z,22.07
2023-01-10T07:17:10.121Z,23.10
2023-01-10T07:19:39.661Z,16.48
2023-01-10T07:22:09.652Z,13.38
2023-01-10T07:24:39.152Z,18.85
2023-01-10T07:27:08.941Z,16.90
2023-01-10T07:29:38.356Z,22.87
2023-01-10T07:32:07.907Z,24.72
2023-01-10T07:34:37.332Z,19.55
2023-01-10T07:37:06.768Z,21.37
2023-01-10T07:39:36.284Z,15.58
2023-01-10T07:42:05.863Z,20.88
2023-01-10T07:44:35.337Z,18.65
2023-01-10T07:47:05.001Z,23.70
2023-01-10T07:49:34.511Z,20.85
2023-01-10T07:52:04.101Z,20.20
2023-01-10T07:54:33.829Z,20.08
2023-01-10T07:57:03.642Z,17.70
2023-01-10T07:59:33.152Z,15.15
2023-01-10T08:02:02.829Z,12.55
2023-01-10T08:04:32.351Z,17.75
2023-01-10T08:07:01.866Z,18.20
2023-01-10T08:09:31.297Z,13.68
2023-01-10T08:12:00.711Z,11.75
2023-01-10T08:14:30.271Z,15.08
2023-01-10T08:16:59.733Z,13.88
2023-01-10T08:19:29.205Z,18.23
2023-01-10T08:21:58.796Z,16.73
2023-01-10T08:24:28.225Z,15.38
2023-01-10T08:26:59.987Z,21.95
2023-01-10T08:29:30.354Z,18.77
2023-01-10T08:32:00.154Z,16.87
2023-01-10T08:34:29.776Z,13.40
2023-01-10T08:36:59.227Z,19.35
2023-01-10T08:39:35.524Z,16.15
2023-01-10T08:42:05.053Z,17.05
2023-01-10T08:44:34.568Z,20.43
2023-01-10T08:47:04.451Z,14.43
2023-01-10T08:49:33.935Z,15.35
2023-01-10T08:52:03.802Z,17.15
2023-01-10T08:54:33.665Z,20.57
2023-01-10T08:57:03.314Z,21.27
2023-01-10T08:59:32.790Z,20.08
2023-01-10T09:02:02.610Z,15.43
2023-01-10T09:04:33.162Z,17.95
2023-01-10T09:07:02.678Z,9.28
2023-01-10T09:09:32.666Z,15.15
2023-01-10T09:12:02.153Z,12.10
2023-01-10T09:14:32.151Z,18.07
2023-01-10T09:17:01.655Z,13.70
2023-01-10T09:21:59.808Z,13.93
2023-01-10T09:24:29.320Z,12.58
2023-01-10T09:26:58.764Z,13.32
2023-01-10T09:29:29.024Z,13.95
2023-01-10T09:31:58.471Z,15.80
2023-01-10T09:36:56.802Z,14.55
2023-01-10T09:39:27.994Z,15.53
2023-01-10T09:42:18.496Z,14.05
2023-01-10T09:45:18.722Z,19.32
2023-01-10T09:47:57.483Z,20.55
2023-01-10T09:51:01.844Z,11.85
2023-01-10T09:53:35.066Z,11.20
2023-01-10T09:56:06.466Z,15.72
2023-01-10T09:58:39.006Z,13.03
2023-01-10T10:04:08.059Z,13.10
2023-01-10T10:06:37.978Z,8.48
2023-01-10T10:09:07.674Z,11.08
2023-01-10T10:11:40.186Z,7.97
2023-01-10T10:17:02.068Z,13.62
2023-01-10T10:19:37.510Z,12.60
2023-01-10T10:22:15.783Z,11.93
2023-01-10T10:25:00.174Z,15.78
2023-01-10T10:28:07.607Z,14.30
2023-01-10T10:30:41.738Z,17.00
2023-01-10T10:33:24.012Z,11.88
2023-01-10T10:36:05.251Z,13.72
2023-01-10T10:38:38.175Z,10.98
2023-01-10T10:43:40.258Z,12.40
2023-01-10T10:46:12.450Z,16.93
2023-01-10T10:48:46.040Z,10.53
2023-01-10T10:51:30.492Z,11.12
2023-01-10T10:54:01.881Z,12.95
2023-01-10T10:56:31.783Z,11.63
2023-01-10T10:59:01.966Z,15.40
2023-01-10T11:01:31.597Z,10.90
2023-01-10T11:04:14.217Z,12.00
2023-01-10T11:06:45.846Z,12.18
2023-01-10T11:09:20.911Z,12.58
2023-01-10T11:11:52.647Z,13.18
2023-01-10T11:14:42.550Z,11.53
2023-01-10T11:17:17.905Z,9.30
2023-01-10T11:20:02.615Z,12.15
2023-01-10T11:22:40.888Z,9.05
2023-01-10T11:25:16.367Z,9.18
2023-01-10T11:27:55.066Z,8.48
2023-01-10T11:30:27.934Z,11.05
2023-01-10T11:33:00.514Z,9.20
2023-01-10T11:35:39.111Z,11.10
2023-01-10T11:38:18.230Z,11.08
2023-01-10T11:41:00.108Z,6.42
2023-01-10T11:43:33.905Z,10.93
2023-01-10T11:46:09.403Z,9.10
2023-01-10T11:49:05.138Z,8.45
2023-01-10T11:51:22.484Z,9.00
2023-01-10T11:53:54.999Z,9.18
2023-01-10T11:56:27.579Z,9.85
2023-01-10T11:58:58.899Z,8.68
2023-01-10T12:01:31.528Z,12.63
2023-01-10T12:04:01.244Z,12.75
2023-01-10T12:06:31.668Z,11.63
2023-01-10T12:09:01.091Z,10.98
2023-01-10T12:11:35.519Z,9.18
2023-01-10T12:14:08.013Z,10.55
2023-01-10T12:16:39.158Z,8.95
2023-01-10T12:19:11.720Z,9.15
2023-01-10T12:21:46.484Z,7.25
2023-01-10T12:24:21.486Z,11.70
2023-01-10T12:26:54.020Z,9.25
2023-01-10T12:29:26.486Z,14.73
2023-01-10T12:31:58.892Z,11.40
2023-01-10T12:34:46.492Z,12.25
2023-01-10T12:37:37.942Z,8.25
2023-01-10T12:40:19.433Z,7.00
2023-01-10T12:43:13.072Z,7.10
2023-01-10T12:45:51.709Z,10.13
2023-01-10T12:48:27.569Z,10.33
2023-01-10T12:51:00.086Z,11.93
2023-01-10T12:53:38.876Z,11.83
2023-01-10T12:56:11.480Z,10.43
2023-01-10T12:58:47.718Z,10.50
2023-01-10T13:01:20.296Z,7.50
2023-01-10T13:03:53.243Z,10.90
2023-01-10T13:06:34.595Z,8.75
2023-01-10T13:09:10.642Z,12.58
2023-01-10T13:12:04.514Z,9.85
2023-01-10T13:14:37.081Z,6.65
2023-01-10T13:17:12.423Z,8.35
2023-01-10T13:19:42.058Z,6.25
2023-01-10T13:22:23.256Z,7.47
2023-01-10T13:25:01.679Z,8.75
2023-01-10T13:27:34.198Z,6.47
2023-01-10T13:30:12.279Z,8.40
2023-01-10T13:32:41.778Z,8.45
2023-01-10T13:35:14.441Z,9.60
2023-01-10T13:37:46.351Z,10.65
2023-01-10T13:40:28.747Z,9.30
2023-01-10T13:43:37.493Z,8.83
2023-01-10T13:46:22.549Z,10.80
2023-01-10T13:48:56.967Z,7.05
2023-01-10T13:51:27.165Z,9.13
2023-01-10T13:54:20.840Z,7.08
2023-01-10T13:56:50.476Z,8.28
2023-01-10T13:59:48.859Z,6.87
2023-01-10T14:02:30.734Z,7.45
2023-01-10T14:05:06.142Z,11.20
2023-01-10T14:07:52.406Z,7.72
2023-01-10T14:10:25.423Z,7.97
2023-01-10T14:13:03.275Z,10.03
2023-01-10T14:15:34.933Z,8.50
2023-01-10T14:18:10.919Z,11.15
2023-01-10T14:20:42.095Z,10.85
2023-01-10T14:23:23.580Z,20.05
2023-01-10T14:25:56.067Z,8.65
2023-01-10T14:28:28.618Z,10.13
2023-01-10T14:33:37.101Z,9.38
2023-01-10T14:36:12.339Z,11.23
2023-01-10T14:38:43.948Z,11.73
2023-01-10T14:41:23.031Z,11.88
2023-01-10T14:44:17.150Z,7.92
2023-01-10T14:46:49.894Z,7.05
2023-01-10T14:49:36.817Z,9.90
2023-01-10T14:52:21.311Z,24.92
2023-01-10T14:54:57.029Z,12.15
2023-01-10T14:57:26.634Z,12.13
2023-01-10T15:00:09.432Z,14.55
2023-01-10T15:02:39.283Z,11.83
2023-01-10T15:05:20.802Z,16.62
2023-01-10T15:07:50.502Z,12.43
2023-01-10T15:10:25.775Z,14.10
2023-01-10T15:13:01.509Z,7.92
2023-01-10T15:15:39.448Z,19.23
2023-01-10T15:18:28.670Z,14.05
2023-01-10T15:20:59.323Z,10.10
2023-01-10T15:23:38.276Z,13.78
2023-01-10T15:26:10.873Z,12.20
2023-01-10T15:28:41.563Z,9.33
2023-01-10T15:31:11.834Z,17.42
2023-01-10T15:33:44.897Z,8.17
2023-01-10T15:38:47.236Z,12.15
2023-01-10T15:41:22.672Z,9.77
2023-01-10T15:43:54.677Z,13.03
2023-01-10T15:46:28.871Z,10.88
2023-01-10T15:49:03.195Z,15.45
2023-01-10T15:51:38.457Z,9.75
2023-01-10T15:54:23.505Z,12.98
2023-01-10T15:56:58.762Z,10.78
2023-01-10T15:59:37.394Z,9.05
2023-01-10T16:02:16.094Z,10.35
2023-01-10T16:04:47.448Z,15.40
2023-01-10T16:07:27.541Z,9.55
2023-01-10T16:10:09.886Z,17.52
2023-01-10T16:13:02.008Z,13.57
2023-01-10T16:15:37.204Z,9.90
2023-01-10T16:18:06.727Z,10.48
2023-01-10T16:20:46.053Z,15.55
2023-01-10T16:23:21.699Z,11.80
2023-01-10T16:25:55.031Z,13.80
2023-01-10T16:28:26.665Z,11.48
2023-01-10T16:30:56.499Z,10.68
2023-01-10T16:33:27.997Z,15.23
2023-01-10T16:36:00.580Z,9.03
2023-01-10T16:38:30.928Z,13.05
2023-01-10T16:41:22.625Z,11.30
2023-01-10T16:43:53.860Z,12.55
2023-01-10T16:46:25.084Z,18.00
2023-01-10T16:48:54.993Z,21.27
2023-01-10T16:51:32.323Z,21.62
2023-01-10T16:54:02.053Z,23.52
2023-01-10T16:56:31.898Z,19.07
2023-01-10T16:59:04.741Z,15.80
2023-01-10T17:01:37.177Z,14.47
2023-01-10T17:04:09.253Z,15.05
2023-01-10T17:06:40.459Z,17.87
2023-01-10T17:11:42.852Z,16.97
2023-01-10T17:14:15.198Z,20.17
2023-01-10T17:16:47.998Z,17.62
2023-01-10T17:19:17.465Z,17.35
2023-01-10T17:21:47.463Z,19.92
2023-01-10T17:24:17.497Z,29.12
2023-01-10T17:26:47.041Z,16.75
2023-01-10T17:29:16.477Z,16.48
2023-01-10T17:31:46.076Z,20.88
2023-01-10T17:34:15.572Z,24.55
2023-01-10T17:36:45.067Z,42.62
2023-01-10T17:39:14.679Z,43.17
2023-01-10T17:41:44.738Z,28.05
2023-01-10T17:44:14.324Z,35.25
2023-01-10T17:46:43.743Z,25.10
2023-01-10T17:49:13.490Z,29.32
2023-01-10T17:51:43.651Z,37.45
2023-01-10T17:54:14.965Z,49.77
2023-01-10T17:56:44.499Z,44.50
2023-01-10T17:59:14.014Z,46.63
2023-01-10T18:01:43.645Z,47.05
2023-01-10T18:04:13.541Z,45.58
2023-01-10T18:06:42.959Z,52.20
2023-01-10T18:09:12.467Z,49.30
2023-01-10T18:11:42.270Z,52.17
2023-01-10T18:14:29.782Z,44.30
2023-01-10T18:17:00.414Z,40.90
2023-01-10T18:19:31.512Z,48.70
2023-01-10T18:22:01.332Z,51.48
2023-01-10T18:24:30.774Z,89.37
2023-01-10T18:27:00.194Z,63.83
2023-01-10T18:29:29.730Z,53.78
2023-01-10T18:31:59.153Z,42.58
2023-01-10T18:34:28.580Z,34.92
2023-01-10T18:36:58.059Z,37.75
2023-01-10T18:39:27.614Z,43.80
2023-01-10T18:41:57.513Z,41.95
2023-01-10T18:44:27.271Z,38.90
2023-01-10T18:46:56.698Z,41.58
2023-01-10T18:49:26.128Z,42.83
2023-01-10T18:51:56.661Z,36.38
2023-01-10T18:54:27.708Z,41.18
2023-01-10T18:56:57.209Z,38.60
2023-01-10T18:59:27.019Z,42.88
2023-01-10T19:01:56.509Z,41.88
2023-01-10T19:04:26.040Z,46.58
2023-01-10T19:06:56.842Z,47.83
2023-01-10T19:09:26.539Z,41.08
2023-01-10T19:11:55.966Z,45.98
2023-01-10T19:14:25.471Z,45.23
2023-01-10T19:16:54.915Z,43.45
2023-01-10T19:19:24.414Z,40.17
2023-01-10T19:21:53.873Z,36.17
2023-01-10T19:24:27.670Z,43.30
2023-01-10T19:26:58.094Z,40.12
2023-01-10T19:29:27.581Z,41.10
2023-01-10T19:31:57.307Z,40.65
2023-01-10T19:34:26.885Z,48.20
2023-01-10T19:36:56.389Z,38.50
2023-01-10T19:39:25.829Z,46.60
2023-01-10T19:41:55.385Z,43.52
2023-01-10T19:44:24.850Z,38.53
2023-01-10T19:46:54.258Z,44.63
2023-01-10T19:49:24.562Z,45.78
2023-01-10T19:51:55.628Z,45.10
2023-01-10T19:54:25.792Z,38.98
2023-01-10T19:56:57.111Z,36.30
2023-01-10T19:59:27.949Z,38.05
2023-01-10T20:01:57.536Z,40.83
2023-01-10T20:04:27.706Z,35.43
2023-01-10T20:06:57.148Z,37.28
2023-01-10T20:09:27.941Z,37.78
2023-01-10T20:11:57.612Z,40.98
2023-01-10T20:14:27.702Z,37.28
2023-01-10T20:16:57.177Z,42.90
2023-01-10T20:19:26.711Z,38.05
2023-01-10T20:21:56.473Z,39.38
2023-01-10T20:24:25.937Z,40.95
2023-01-10T20:26:56.999Z,41.23
2023-01-10T20:29:26.473Z,35.08
2023-01-10T20:31:57.591Z,33.48
2023-01-10T20:34:27.007Z,35.17
2023-01-10T20:36:57.149Z,35.15
2023-01-10T20:39:27.363Z,39.78
2023-01-10T20:41:58.412Z,36.50
2023-01-10T20:44:28.474Z,39.03
2023-01-10T20:46:57.963Z,32.15
2023-01-10T20:49:27.466Z,40.75
2023-01-10T20:51:56.911Z,36.50
2023-01-10T20:54:26.757Z,41.33
2023-01-10T20:56:56.594Z,44.83
2023-01-10T20:59:27.681Z,46.80
2023-01-10T21:04:26.191Z,60.28
2023-01-10T21:06:56.197Z,57.40
2023-01-10T21:09:28.440Z,62.85
2023-01-10T21:12:10.608Z,64.20
2023-01-10T21:14:29.125Z,64.75
2023-01-10T21:16:59.259Z,60.08
2023-01-10T21:19:28.685Z,55.33
2023-01-10T21:21:58.121Z,52.05
2023-01-10T21:24:28.182Z,44.65
2023-01-10T21:26:57.617Z,44.45
2023-01-10T21:29:27.044Z,39.67
2023-01-10T21:31:56.843Z,43.98
2023-01-10T21:34:27.628Z,46.65
2023-01-10T21:36:57.175Z,42.60
2023-01-10T21:39:26.596Z,43.58
2023-01-10T21:42:14.401Z,53.68
2023-01-10T21:44:44.087Z,55.00
2023-01-10T21:47:13.563Z,53.55
2023-01-10T21:49:43.438Z,56.92
2023-01-10T21:52:12.918Z,59.18
2023-01-10T21:54:42.347Z,50.45
2023-01-10T21:57:12.776Z,53.13
2023-01-10T21:59:42.195Z,55.37
2023-01-10T22:02:16.013Z,42.38
2023-01-10T22:04:53.546Z,38.02
2023-01-10T22:07:27.715Z,37.65
2023-01-10T22:09:57.128Z,33.13
2023-01-10T22:12:27.081Z,36.40
2023-01-10T22:14:56.512Z,36.10
2023-01-10T22:17:26.521Z,34.85
2023-01-10T22:19:55.999Z,33.45
2023-01-10T22:22:25.440Z,35.75
2023-01-10T22:24:55.236Z,36.08
2023-01-10T22:27:25.129Z,33.90
2023-01-10T22:29:55.315Z,42.25
2023-01-10T22:32:24.764Z,35.60
2023-01-10T22:34:54.658Z,34.35
2023-01-10T22:37:24.184Z,36.50
2023-01-10T22:39:53.669Z,36.63
2023-01-10T22:42:23.390Z,34.98
2023-01-10T22:44:52.844Z,29.95
2023-01-10T22:47:22.414Z,37.10
2023-01-10T22:49:51.939Z,28.45
2023-01-10T22:52:21.384Z,31.05
2023-01-10T22:54:50.803Z,28.67
2023-01-10T22:57:20.610Z,26.10
2023-01-10T22:59:52.835Z,26.73
2023-01-10T23:02:22.353Z,32.03
2023-01-10T23:04:51.766Z,25.65
2023-01-10T23:07:21.785Z,25.05
2023-01-10T23:09:51.353Z,30.60
2023-01-10T23:12:20.756Z,28.60
2023-01-10T23:14:50.175Z,25.40
2023-01-10T23:17:19.613Z,31.75
2023-01-10T23:19:49.039Z,24.27
2023-01-10T23:22:18.427Z,25.00
2023-01-10T23:24:48.211Z,25.37
2023-01-10T23:27:17.677Z,28.38
2023-01-10T23:29:47.129Z,27.77
2023-01-10T23:32:16.649Z,30.62
2023-01-10T23:34:46.065Z,23.83
2023-01-10T23:37:16.006Z,32.15
2023-01-10T23:39:46.062Z,27.45
2023-01-10T23:42:15.462Z,28.87
2023-01-10T23:44:45.105Z,22.97
2023-01-10T23:47:14.560Z,27.65
2023-01-10T23:49:43.936Z,27.55
2023-01-10T23:52:15.136Z,30.00
2023-01-10T23:54:44.932Z,26.12
2023-01-10T23:57:14.312Z,31.95
2023-01-10T23:59:43.719Z,25.30
